Time;durP1;ratioP1;P1;durP2;ratioP2;P2;SDS_P1;SDS_P2;PMS_P1;PMS_P2;Temp;Humidity;BMP_temperature;BMP_pressure;BME280_temperature;BME280_humidity;BME280_pressure;Samples;Min_cycle;Max_cycle;Signal;HPM_P1;HPM_P2
2023/04/13 00:01:20;;;;;;;3.13;1.80;;;7.60;99.90;;;-141.84;80.37;19448.03;5072875;28;20750;-59
2023/04/13 00:03:49;;;;;;;2.73;1.90;;;7.60;99.90;;;-141.84;80.12;19421.63;5073147;28;20208;-62
2023/04/13 00:06:19;;;;;;;2.07;1.83;;;7.70;99.90;;;-141.84;80.59;19407.38;5073239;28;20208;-60
2023/04/13 00:08:47;;;;;;;2.33;1.60;;;7.60;99.90;;;-141.84;80.62;19435.84;5073112;28;20220;-60
2023/04/13 00:11:15;;;;;;;2.20;1.70;;;7.60;99.90;;;-141.84;79.58;19466.31;5072736;28;20232;-60
2023/04/13 00:13:46;;;;;;;1.97;1.60;;;7.60;99.90;;;-141.84;80.06;19443.97;5072608;28;20224;-60
2023/04/13 00:16:16;;;;;;;1.93;1.63;;;7.60;99.90;;;-141.84;79.09;19470.38;5072251;28;20227;-60
2023/04/13 00:18:45;;;;;;;1.70;1.40;;;7.70;99.90;;;-141.84;79.08;19446.00;5073344;28;20244;-62
2023/04/13 00:21:15;;;;;;;2.13;1.70;;;7.60;99.90;;;-141.84;79.88;19395.19;5073033;28;20224;-60
2023/04/13 00:23:44;;;;;;;1.40;1.30;;;7.50;99.90;;;-141.84;79.54;19415.50;5072527;28;20234;-59
2023/04/13 00:26:12;;;;;;;1.90;1.20;;;7.40;99.90;;;-141.84;79.21;19415.50;5072494;28;20231;-61
2023/04/13 00:28:41;;;;;;;1.10;1.10;;;7.40;99.90;;;-141.84;78.44;19433.81;5072100;28;20711;-60
2023/04/13 00:31:09;;;;;;;1.37;1.23;;;7.50;99.90;;;-141.84;78.11;19448.03;5072153;28;20220;-62
2023/04/13 00:33:38;;;;;;;1.43;1.20;;;7.50;99.90;;;-141.84;78.35;19421.63;5072917;28;20200;-61
2023/04/13 00:36:08;;;;;;;2.40;1.17;;;7.40;99.90;;;-141.84;78.71;19417.56;5072170;28;20232;-61
2023/04/13 00:38:38;;;;;;;1.00;1.00;;;7.30;99.90;;;-141.84;79.29;19419.59;5060942;28;20626;-61
2023/04/13 00:41:07;;;;;;;1.37;1.17;;;7.30;99.90;;;-141.84;80.44;19393.16;5053415;28;20221;-60
2023/04/13 00:43:35;;;;;;;1.10;1.00;;;7.20;99.90;;;-141.84;80.76;19378.94;5072055;28;20271;-61
2023/04/13 00:46:04;;;;;;;1.10;1.00;;;7.20;99.90;;;-141.84;80.89;19387.06;5071896;28;20197;-62
2023/04/13 00:48:34;;;;;;;1.63;1.23;;;7.10;99.90;;;-141.84;80.44;19387.06;5072273;28;20196;-60
2023/04/13 00:51:02;;;;;;;1.30;1.13;;;7.10;99.90;;;-141.84;80.82;19401.28;5071854;28;20241;-60
2023/04/13 00:53:32;;;;;;;1.40;1.30;;;7.10;99.90;;;-141.84;79.98;19401.28;5071887;28;20225;-62
2023/04/13 00:56:04;;;;;;;1.20;1.10;;;7.10;99.90;;;-141.84;81.18;19370.81;5071624;28;20221;-60
2023/04/13 00:58:33;;;;;;;1.47;1.20;;;7.00;99.90;;;-141.84;81.87;19383.00;5071592;28;20225;-62
2023/04/13 01:01:01;;;;;;;1.20;1.10;;;7.00;99.90;;;-141.84;82.26;19342.34;5071618;28;20208;-61
2023/04/13 01:03:29;;;;;;;1.93;1.20;;;6.90;99.90;;;-141.84;81.20;19387.06;5072332;28;20664;-60
2023/04/13 01:06:13;;;;;;;2.20;1.20;;;7.00;99.90;;;-141.84;81.10;19374.88;5071635;28;20254;-61
2023/04/13 01:08:52;;;;;;;2.40;1.30;;;7.00;99.90;;;-141.84;81.36;19399.25;5071410;28;20608;-60
2023/04/13 01:11:31;;;;;;;1.17;1.07;;;7.00;99.90;;;-141.84;81.68;19370.81;5071197;28;20220;-60
2023/04/13 01:14:08;;;;;;;1.40;1.17;;;7.00;99.90;;;-141.84;81.97;19387.06;5071212;28;20243;-59
2023/04/13 01:16:44;;;;;;;1.13;1.00;;;7.00;99.90;;;-141.84;82.11;19344.41;5071343;28;20224;-61
2023/04/13 01:19:28;;;;;;;1.20;1.10;;;7.00;99.90;;;-141.84;82.73;19380.97;5071384;28;20234;-60
2023/04/13 01:21:56;;;;;;;2.50;1.10;;;6.90;99.90;;;-141.84;82.69;19403.31;5071431;28;20192;-61
2023/04/13 01:24:40;;;;;;;1.57;1.30;;;7.00;99.90;;;-141.84;82.76;19350.50;5071429;28;20228;-60
2023/04/13 01:27:19;;;;;;;1.53;1.10;;;7.00;99.90;;;-141.84;82.60;19376.91;5071099;28;20220;-61
2023/04/13 01:29:50;;;;;;;2.47;1.17;;;7.00;99.90;;;-141.84;82.29;19393.16;5070887;28;20319;-61
2023/04/13 01:32:20;;;;;;;1.60;1.40;;;7.00;99.90;;;-141.84;81.99;19372.84;5071094;28;20240;-61
2023/04/13 01:34:48;;;;;;;1.20;1.10;;;7.00;99.90;;;-141.84;80.81;19407.38;5071396;28;20231;-61
2023/04/13 01:37:17;;;;;;;1.53;1.10;;;7.10;99.90;;;-141.84;80.42;19362.69;5071045;28;20235;-61
2023/04/13 01:39:46;;;;;;;0.83;0.83;;;7.10;99.90;;;-141.84;79.98;19395.19;5051912;28;20226;-62
2023/04/13 01:42:16;;;;;;;2.80;1.00;;;7.10;99.90;;;-141.84;80.64;19378.94;5062149;28;20212;-61
2023/04/13 01:44:45;;;;;;;1.23;1.13;;;7.00;99.90;;;-141.84;80.67;19378.94;5070576;28;20224;-60
2023/04/13 01:47:24;;;;;;;1.80;1.23;;;7.00;99.90;;;-141.84;80.37;19393.16;5070839;28;20604;-60
2023/04/13 01:50:03;;;;;;;1.37;1.10;;;7.10;99.90;;;-141.84;80.06;19356.59;5071052;28;20220;-60
2023/04/13 01:52:34;;;;;;;1.67;1.50;;;7.00;99.90;;;-141.84;80.06;19380.97;5070816;28;20247;-61
2023/04/13 01:55:05;;;;;;;1.60;1.17;;;7.10;99.90;;;-141.84;80.58;19383.00;5071057;28;20196;-60
2023/04/13 01:57:38;;;;;;;2.13;1.10;;;7.00;99.90;;;-141.84;80.78;19368.78;5071467;28;20334;-60
2023/04/13 02:00:12;;;;;;;1.53;1.20;;;6.90;99.90;;;-141.84;81.53;19358.63;5070467;28;20663;-61
2023/04/13 02:02:41;;;;;;;2.03;1.20;;;6.80;99.90;;;-141.84;81.87;19336.25;5070195;28;20225;-61
2023/04/13 02:05:10;;;;;;;1.70;1.27;;;6.80;99.90;;;-141.84;82.42;19364.72;5070596;28;20326;-60
2023/04/13 02:07:40;;;;;;;1.53;1.13;;;6.70;99.90;;;-141.84;80.86;19372.84;5070138;28;20212;-60
2023/04/13 02:10:10;;;;;;;1.37;1.13;;;6.80;99.90;;;-141.84;80.67;19358.63;5035020;28;20607;-60
2023/04/13 02:12:39;;;;;;;1.33;1.10;;;6.70;99.90;;;-141.84;81.73;19364.72;5070739;28;20686;-61
2023/04/13 02:15:08;;;;;;;1.37;1.23;;;6.70;99.90;;;-141.84;82.72;19295.63;5070294;28;20228;-60
2023/04/13 02:17:37;;;;;;;1.50;1.40;;;6.60;99.90;;;-141.84;83.29;19320.00;5070589;28;20303;-60
2023/04/13 02:20:11;;;;;;;1.70;1.20;;;6.60;99.90;;;-141.84;83.60;19352.53;5070717;28;20242;-60
2023/04/13 02:22:40;;;;;;;1.47;1.30;;;6.60;99.90;;;-141.84;83.52;19338.28;5070783;28;20220;-60
2023/04/13 02:25:10;;;;;;;1.40;1.30;;;6.60;99.90;;;-141.84;83.47;19328.13;5070207;28;20369;-60
2023/04/13 02:27:39;;;;;;;1.40;1.30;;;6.60;99.90;;;-141.84;83.50;19354.56;5070876;28;20217;-59
2023/04/13 02:30:10;;;;;;;1.63;1.33;;;6.60;99.90;;;-141.84;83.07;19324.06;5070157;28;20290;-61
2023/04/13 02:32:41;;;;;;;1.30;1.20;;;6.60;99.90;;;-141.84;83.22;19305.78;5070782;28;20724;-61
2023/04/13 02:35:11;;;;;;;2.60;1.60;;;6.60;99.90;;;-141.84;83.27;19350.50;5070524;28;20301;-60
2023/04/13 02:37:40;;;;;;;2.43;1.20;;;6.60;99.90;;;-141.84;83.20;19342.34;5070383;28;20226;-60
2023/04/13 02:40:09;;;;;;;2.23;1.40;;;6.60;99.90;;;-141.84;83.32;19315.94;5070343;28;20236;-60
2023/04/13 02:42:38;;;;;;;1.73;1.40;;;6.60;99.90;;;-141.84;83.45;19338.28;5056806;28;20231;-60
2023/04/13 02:45:10;;;;;;;2.57;1.40;;;6.60;99.90;;;-141.84;83.45;19317.97;5053393;28;20282;-61
2023/04/13 02:47:39;;;;;;;2.10;1.43;;;6.60;99.90;;;-141.84;83.45;19328.13;5049979;28;20233;-60
2023/04/13 02:50:10;;;;;;;1.87;1.50;;;6.60;99.90;;;-141.84;83.38;19315.94;5050254;28;20607;-61
2023/04/13 02:52:38;;;;;;;1.67;1.47;;;6.60;99.90;;;-141.84;83.31;19305.78;5049983;28;20225;-59
2023/04/13 02:55:09;;;;;;;3.33;1.50;;;6.60;99.90;;;-141.84;82.92;19326.09;5049934;28;20871;-60
2023/04/13 02:57:37;;;;;;;3.03;2.27;;;6.60;99.90;;;-141.84;82.77;19358.63;5050235;28;20681;-60
2023/04/13 03:00:09;;;;;;;2.20;2.00;;;6.50;99.90;;;-141.84;82.62;19336.25;5068929;28;20232;-61
2023/04/13 03:02:38;;;;;;;1.80;1.70;;;6.50;99.90;;;-141.84;82.44;19305.78;5069858;28;20247;-61
2023/04/13 03:05:07;;;;;;;1.67;1.57;;;6.50;99.90;;;-141.84;82.03;19340.31;5069753;28;20227;-59
2023/04/13 03:07:37;;;;;;;1.57;1.40;;;6.50;99.90;;;-141.84;82.73;19320.00;5069703;28;20220;-61
2023/04/13 03:10:07;;;;;;;2.07;1.87;;;6.50;99.90;;;-141.84;82.79;19328.13;5070114;28;20208;-61
2023/04/13 03:12:35;;;;;;;3.20;1.77;;;6.50;99.90;;;-141.84;83.13;19307.81;5072022;28;20192;-59
2023/04/13 03:15:09;;;;;;;2.03;1.60;;;6.40;99.90;;;-141.84;83.60;19338.28;5073688;28;20589;-62
2023/04/13 03:17:39;;;;;;;1.80;1.60;;;6.40;99.90;;;-141.84;83.75;19328.13;5073555;28;20669;-60
2023/04/13 03:20:11;;;;;;;2.57;1.70;;;6.40;99.90;;;-141.84;83.82;19305.78;5073763;28;20224;-61
2023/04/13 03:22:41;;;;;;;2.33;1.60;;;6.40;99.90;;;-141.84;83.47;19322.03;5073721;28;20232;-60
2023/04/13 03:25:09;;;;;;;1.53;1.43;;;6.40;99.90;;;-141.84;83.66;19330.16;5073479;28;20229;-62
2023/04/13 03:27:38;;;;;;;1.60;1.43;;;6.40;99.90;;;-141.84;83.05;19334.22;5074056;28;20204;-60
2023/04/13 03:30:08;;;;;;;1.70;1.60;;;6.50;99.90;;;-141.84;81.87;19342.34;5073303;28;20648;-60
2023/04/13 03:32:36;;;;;;;1.63;1.47;;;6.60;99.90;;;-141.84;82.19;19317.97;5073188;28;20724;-60
2023/04/13 03:35:05;;;;;;;1.57;1.47;;;6.60;99.90;;;-141.84;81.17;19320.00;5073404;28;20224;-60
2023/04/13 03:37:39;;;;;;;1.67;1.33;;;6.60;99.90;;;-141.84;81.88;19338.28;5071146;28;20235;-60
2023/04/13 03:40:10;;;;;;;1.60;1.10;;;6.60;99.90;;;-141.84;81.93;19307.81;5053586;28;20578;-61
2023/04/13 03:42:38;;;;;;;1.60;1.47;;;6.60;99.90;;;-141.84;82.09;19291.56;5067707;28;20205;-61
2023/04/13 03:45:08;;;;;;;3.07;1.10;;;6.60;99.90;;;-141.84;81.47;19348.47;5067847;28;20225;-60
2023/04/13 03:47:37;;;;;;;3.07;1.10;;;6.60;99.90;;;-141.84;81.13;19383.00;5053220;28;20244;-61
2023/04/13 03:50:07;;;;;;;1.80;1.10;;;6.60;99.90;;;-141.84;81.37;19350.50;5053394;28;20238;-60
2023/04/13 03:52:35;;;;;;;1.20;1.10;;;6.60;99.90;;;-141.84;80.97;19326.09;5053126;28;20235;-60
2023/04/13 03:55:05;;;;;;;3.53;2.60;;;6.60;99.90;;;-141.84;81.14;19311.88;5053411;28;20205;-60
2023/04/13 03:57:35;;;;;;;1.73;1.10;;;6.60;99.90;;;-141.84;81.33;19344.41;5053336;28;20619;-60
2023/04/13 04:00:10;;;;;;;1.30;1.20;;;6.60;99.90;;;-141.84;80.90;19330.16;5071698;28;20220;-61
2023/04/13 04:02:38;;;;;;;1.60;1.10;;;6.60;99.90;;;-141.84;80.56;19348.47;5073299;28;20277;-60
2023/04/13 04:05:07;;;;;;;1.33;1.10;;;6.60;99.90;;;-141.84;80.58;19346.44;5072973;28;20252;-60
2023/04/13 04:07:35;;;;;;;1.00;1.00;;;6.60;99.90;;;-141.84;80.50;19344.41;5072947;28;20229;-60
2023/04/13 04:10:04;;;;;;;1.00;0.90;;;6.70;99.90;;;-141.84;79.86;19393.16;5072855;28;20207;-60
2023/04/13 04:12:32;;;;;;;1.37;0.90;;;6.70;99.90;;;-141.84;79.46;19342.34;5073347;28;20200;-62
2023/04/13 04:15:01;;;;;;;1.67;0.90;;;6.70;99.90;;;-141.84;79.49;19354.56;5072767;28;20232;-60
2023/04/13 04:17:29;;;;;;;1.00;0.80;;;6.70;99.90;;;-141.84;79.17;19315.94;5072763;28;20233;-61
2023/04/13 04:19:58;;;;;;;1.23;0.90;;;6.70;99.90;;;-141.84;78.95;19348.47;5072667;28;20224;-61
2023/04/13 04:22:28;;;;;;;0.87;0.80;;;6.70;99.90;;;-141.84;79.22;19340.31;5072646;28;20242;-61
2023/04/13 04:24:58;;;;;;;1.13;1.00;;;6.60;99.90;;;-141.84;79.60;19348.47;5071425;28;20236;-60
2023/04/13 04:27:26;;;;;;;2.20;1.10;;;6.60;99.90;;;-141.84;79.71;19356.59;5073036;28;20201;-60
2023/04/13 04:29:58;;;;;;;0.90;0.80;;;6.60;99.90;;;-141.84;79.87;19332.19;5072021;28;20221;-61
2023/04/13 04:32:27;;;;;;;1.37;1.10;;;6.60;99.90;;;-141.84;79.65;19338.28;5072282;28;20243;-60
2023/04/13 04:34:55;;;;;;;2.37;1.20;;;6.50;99.90;;;-141.84;79.41;19338.28;5072113;28;20728;-61
2023/04/13 04:37:24;;;;;;;1.00;0.90;;;6.60;99.90;;;-141.84;78.71;19315.94;5071249;28;20237;-61
2023/04/13 04:39:53;;;;;;;1.37;1.10;;;6.60;99.90;;;-141.84;77.90;19360.66;5072452;28;20294;-60
2023/04/13 04:42:21;;;;;;;1.70;1.10;;;6.70;99.90;;;-141.84;77.62;19354.56;5072425;28;20299;-61
2023/04/13 04:44:49;;;;;;;1.37;1.03;;;6.80;99.90;;;-141.84;77.07;19374.88;5071405;28;20243;-61
2023/04/13 04:47:18;;;;;;;1.00;0.87;;;6.80;99.90;;;-141.84;76.08;19399.25;5071947;28;20235;-61
2023/04/13 04:49:48;;;;;;;1.17;0.80;;;7.00;99.90;;;-141.84;75.35;19427.72;5071576;28;20221;-61
2023/04/13 04:52:16;;;;;;;1.90;1.10;;;7.00;99.90;;;-141.84;74.52;19405.34;5071846;28;20220;-61
2023/04/13 04:54:44;;;;;;;0.87;0.80;;;7.10;99.90;;;-141.84;75.29;19421.63;5072154;28;20205;-60
2023/04/13 04:57:13;;;;;;;1.73;0.93;;;7.10;99.90;;;-141.84;76.13;19370.81;5071290;28;20224;-62
2023/04/13 04:59:41;;;;;;;2.27;1.00;;;7.10;99.90;;;-141.84;74.89;19423.66;5071183;28;20325;-62
2023/04/13 05:02:09;;;;;;;1.70;1.03;;;7.20;99.90;;;-141.84;73.60;19439.91;5071543;28;20251;-61
2023/04/13 05:04:40;;;;;;;1.07;0.90;;;7.30;99.90;;;-141.84;73.69;19433.81;5071355;28;20225;-61
2023/04/13 05:07:10;;;;;;;1.47;1.23;;;7.30;99.90;;;-141.84;73.81;19380.97;5071649;28;20246;-61
2023/04/13 05:09:38;;;;;;;1.10;0.80;;;7.40;99.90;;;-141.84;73.61;19417.56;5071706;28;20212;-61
2023/04/13 05:12:07;;;;;;;1.67;1.10;;;7.40;99.90;;;-141.84;73.11;19456.16;5071196;28;20712;-60
2023/04/13 05:14:35;;;;;;;1.53;1.13;;;7.50;99.90;;;-141.84;72.50;19435.84;5070714;28;20232;-62
2023/04/13 05:17:04;;;;;;;2.60;1.10;;;7.50;99.90;;;-141.84;71.99;19476.47;5071370;28;20274;-60
2023/04/13 05:19:33;;;;;;;2.80;1.00;;;7.50;99.90;;;-141.84;71.54;19476.47;5071155;28;20220;-62
2023/04/13 05:22:03;;;;;;;2.17;1.00;;;7.60;99.90;;;-141.84;71.06;19476.47;5071100;28;20204;-59
2023/04/13 05:24:32;;;;;;;1.30;1.03;;;7.70;99.90;;;-141.84;70.64;19496.81;5071107;28;20728;-61
2023/04/13 05:27:00;;;;;;;0.93;0.93;;;7.70;99.90;;;-141.84;70.22;19509.00;5070886;28;20220;-61
2023/04/13 05:29:28;;;;;;;1.13;1.00;;;7.80;99.90;;;-141.84;68.78;19541.50;5070572;28;20699;-60
2023/04/13 05:31:58;;;;;;;1.30;0.90;;;7.90;99.90;;;-141.84;69.29;19563.88;5070886;28;20220;-61
2023/04/13 05:34:27;;;;;;;1.93;1.20;;;8.00;99.90;;;-141.84;68.99;19533.38;5064998;28;20229;-60
2023/04/13 05:36:56;;;;;;;1.87;1.23;;;8.00;99.90;;;-141.84;68.52;19559.81;5050661;28;20224;-61
2023/04/13 05:39:24;;;;;;;4.63;1.03;;;8.10;99.90;;;-141.84;68.72;19519.16;5051051;28;20209;-62
2023/04/13 05:41:54;;;;;;;1.03;0.97;;;8.10;99.90;;;-141.84;69.69;19533.38;5058288;28;20217;-61
2023/04/13 05:44:22;;;;;;;4.13;1.17;;;8.00;99.90;;;-141.84;69.39;19488.69;5070487;28;20307;-65
2023/04/13 05:46:51;;;;;;;2.13;1.10;;;8.00;99.90;;;-141.84;68.87;19521.19;5070931;28;20220;-61
2023/04/13 05:49:19;;;;;;;1.30;0.97;;;8.00;99.90;;;-141.84;68.54;19521.19;5071440;28;20220;-60
2023/04/13 05:51:47;;;;;;;1.43;0.87;;;8.10;99.90;;;-141.84;68.89;19537.44;5071850;28;20208;-62
2023/04/13 05:54:16;;;;;;;2.10;1.20;;;8.10;99.90;;;-141.84;69.13;19498.84;5070957;28;20221;-60
2023/04/13 05:56:44;;;;;;;1.07;0.90;;;8.10;99.90;;;-141.84;67.99;19537.44;5070588;28;20723;-61
2023/04/13 05:59:15;;;;;;;1.83;1.13;;;8.20;99.90;;;-141.84;67.72;19553.72;5070563;28;20225;-61
2023/04/13 06:01:43;;;;;;;1.40;1.30;;;8.20;99.90;;;-141.84;67.34;19545.56;5070309;28;20229;-61
2023/04/13 06:04:13;;;;;;;3.17;1.20;;;8.30;99.90;;;-141.84;66.87;19588.25;5070439;28;20224;-61
2023/04/13 06:06:41;;;;;;;2.40;1.20;;;8.40;99.90;;;-141.84;67.57;19578.09;5071067;28;20296;-62
2023/04/13 06:09:09;;;;;;;2.97;1.37;;;8.40;99.90;;;-141.84;67.35;19559.81;5070370;28;20225;-60
2023/04/13 06:11:38;;;;;;;1.20;0.90;;;8.40;99.90;;;-141.84;66.87;19590.28;5070216;28;20228;-62
2023/04/13 06:14:06;;;;;;;2.20;1.20;;;8.40;99.90;;;-141.84;66.90;19561.84;5070977;28;20224;-61
2023/04/13 06:16:35;;;;;;;2.30;1.10;;;8.40;99.90;;;-141.84;66.92;19578.09;5076663;28;20227;-62
2023/04/13 06:19:04;;;;;;;2.23;1.30;;;8.40;99.90;;;-141.84;66.44;19602.47;5074259;28;20646;-60
2023/04/13 06:21:32;;;;;;;2.13;1.20;;;8.50;99.90;;;-141.84;66.28;19606.53;5071131;28;20217;-60
2023/04/13 06:24:00;;;;;;;2.00;1.03;;;8.60;99.90;;;-141.84;65.58;19596.38;5070372;28;20715;-60
2023/04/13 06:26:28;;;;;;;2.47;1.20;;;8.60;99.90;;;-141.84;65.64;19590.28;5070071;28;20221;-61
2023/04/13 06:28:57;;;;;;;1.50;1.00;;;8.70;99.90;;;-141.84;64.93;19635.00;5070059;28;20225;-62
2023/04/13 06:31:26;;;;;;;1.90;0.97;;;8.80;99.90;;;-141.84;65.57;19632.97;5057861;28;20225;-59
2023/04/13 06:33:56;;;;;;;2.60;1.00;;;8.80;99.90;;;-141.84;65.71;19643.13;5050040;28;20205;-62
2023/04/13 06:36:24;;;;;;;1.73;1.10;;;8.80;99.90;;;-141.84;65.18;19655.31;5050209;28;20224;-61
2023/04/13 06:38:53;;;;;;;1.30;1.13;;;8.90;99.90;;;-141.84;64.29;19630.94;5049795;28;20248;-61
2023/04/13 06:41:21;;;;;;;2.83;1.00;;;8.90;99.90;;;-141.84;64.27;19647.19;5052983;28;20231;-61
2023/04/13 06:43:49;;;;;;;2.03;1.27;;;8.90;99.90;;;-141.84;64.20;19647.19;5069781;28;20225;-60
2023/04/13 06:46:17;;;;;;;3.10;1.40;;;9.00;99.90;;;-141.84;63.73;19683.78;5069338;28;20228;-61
2023/04/13 06:48:47;;;;;;;1.73;1.23;;;9.10;99.90;;;-141.84;63.47;19683.78;5076507;28;20197;-62
2023/04/13 06:51:16;;;;;;;1.13;0.80;;;9.20;99.90;;;-141.84;63.23;19714.25;5076765;28;20269;-62
2023/04/13 06:53:44;;;;;;;1.93;1.30;;;9.20;99.90;;;-141.84;62.94;19716.28;5076805;28;20228;-61
2023/04/13 06:56:13;;;;;;;2.50;1.00;;;9.30;99.90;;;-141.84;62.65;19726.44;5076674;28;20281;-61
2023/04/13 06:58:41;;;;;;;2.10;1.00;;;9.40;99.90;;;-141.84;61.69;19763.03;5076563;28;20220;-62
2023/04/13 07:01:09;;;;;;;2.23;1.20;;;9.50;99.90;;;-141.84;61.29;19754.91;5076173;28;20231;-61
2023/04/13 07:03:37;;;;;;;1.40;1.30;;;9.50;99.90;;;-141.84;61.38;19752.88;5077180;28;20247;-62
2023/04/13 07:06:08;;;;;;;2.93;1.30;;;9.60;99.90;;;-141.84;61.95;19740.69;5075846;28;20263;-61
2023/04/13 07:08:37;;;;;;;3.63;1.90;;;9.60;99.90;;;-141.84;61.76;19769.13;5076433;28;20228;-61
2023/04/13 07:11:06;;;;;;;3.17;1.33;;;9.70;99.90;;;-141.84;61.56;19801.66;5076210;28;20576;-62
2023/04/13 07:13:35;;;;;;;3.70;1.40;;;9.80;99.90;;;-141.84;60.07;19795.53;5075977;28;20224;-61
2023/04/13 07:16:03;;;;;;;1.87;1.40;;;9.80;99.90;;;-141.84;60.33;19769.13;5076241;28;20196;-61
2023/04/13 07:18:32;;;;;;;2.13;1.43;;;10.00;99.90;;;-141.84;60.47;19805.72;5076914;28;20274;-62
2023/04/13 07:21:00;;;;;;;3.80;1.47;;;10.00;99.90;;;-141.84;59.56;19821.97;5076315;28;20224;-61
2023/04/13 07:23:28;;;;;;;2.03;1.10;;;10.10;99.90;;;-141.84;60.18;19828.06;5076211;28;20577;-62
2023/04/13 07:25:58;;;;;;;2.10;1.27;;;10.10;99.90;;;-141.84;59.20;19838.22;5075694;28;20221;-61
2023/04/13 07:28:26;;;;;;;2.00;1.40;;;10.20;99.90;;;-141.84;60.16;19846.34;5074703;28;20254;-61
2023/04/13 07:30:55;;;;;;;4.50;1.20;;;10.40;99.90;;;-141.84;58.74;19889.03;5074573;28;20211;-62
2023/04/13 07:33:23;;;;;;;1.60;1.10;;;10.50;99.90;;;-141.84;57.09;19915.47;5076143;28;20201;-61
2023/04/13 07:35:53;;;;;;;2.93;1.40;;;10.60;99.90;;;-141.84;57.26;19858.56;5076271;28;20227;-61
2023/04/13 07:38:22;;;;;;;3.20;1.70;;;10.60;99.90;;;-141.84;57.60;19911.41;5066662;28;20221;-62
2023/04/13 07:40:51;;;;;;;1.70;1.00;;;10.60;99.90;;;-141.84;57.65;19923.59;5056203;28;20339;-61
2023/04/13 07:43:24;;;;;;;1.83;1.00;;;10.70;99.90;;;-141.84;55.47;19923.59;5075330;28;20228;-61
2023/04/13 07:45:52;;;;;;;2.17;1.13;;;10.80;99.90;;;-141.84;55.98;19919.53;5075450;28;20204;-61
2023/04/13 07:48:20;;;;;;;2.10;1.17;;;10.70;99.90;;;-141.84;55.77;19899.19;5076326;28;20687;-60
2023/04/13 07:50:49;;;;;;;2.27;1.10;;;10.70;99.90;;;-141.84;56.30;19895.13;5075734;28;20223;-62
2023/04/13 07:53:17;;;;;;;1.70;1.10;;;10.70;99.90;;;-141.84;56.36;19917.50;5075773;28;20239;-60
2023/04/13 07:55:45;;;;;;;1.50;1.23;;;10.70;99.90;;;-141.84;55.59;19915.47;5076172;28;20220;-61
2023/04/13 07:58:13;;;;;;;1.73;1.00;;;10.70;99.90;;;-141.84;55.44;19897.16;5075023;28;20247;-61
2023/04/13 08:00:42;;;;;;;2.27;1.23;;;10.70;99.90;;;-141.84;55.74;19943.91;5072581;28;20201;-60
2023/04/13 08:03:11;;;;;;;3.13;0.90;;;10.70;99.90;;;-141.84;55.19;19939.84;5072433;28;20229;-60
2023/04/13 08:05:39;;;;;;;1.53;1.00;;;10.80;99.90;;;-141.84;53.84;19964.25;5061380;28;20625;-79
2023/04/13 08:08:07;;;;;;;3.93;1.23;;;11.00;99.90;;;-141.84;55.28;19964.25;5072631;28;20233;-76
2023/04/13 08:10:36;;;;;;;1.90;0.93;;;11.00;99.90;;;-141.84;52.83;19996.75;5072903;28;20225;-78
2023/04/13 08:13:04;;;;;;;2.40;1.07;;;11.10;99.90;;;-141.84;53.37;20039.44;5072707;28;20201;-79
2023/04/13 08:15:32;;;;;;;1.50;1.07;;;11.30;99.90;;;-141.84;52.15;20065.84;5073459;28;20208;-76
2023/04/13 08:18:02;;;;;;;1.60;0.90;;;11.50;99.90;;;-141.84;51.00;20015.03;5072533;28;20229;-77
2023/04/13 08:20:32;;;;;;;2.43;1.00;;;11.60;99.90;;;-141.84;51.37;20061.78;5072719;28;20250;-82
2023/04/13 08:23:00;;;;;;;1.30;0.77;;;11.60;99.90;;;-141.84;51.42;20102.44;5072641;28;20248;-75
2023/04/13 08:25:29;;;;;;;2.20;1.00;;;11.70;99.90;;;-141.84;51.01;20149.19;5072343;28;20239;-78
2023/04/13 08:27:57;;;;;;;1.60;0.70;;;11.90;99.90;;;-141.84;50.85;20134.97;5072419;28;20197;-78
2023/04/13 08:30:26;;;;;;;1.47;0.80;;;12.00;99.90;;;-141.84;50.57;20126.84;5074558;28;20482;-79
2023/04/13 08:32:54;;;;;;;2.73;1.03;;;12.10;99.90;;;-141.84;50.45;20122.78;5073010;28;20225;-78
2023/04/13 08:35:23;;;;;;;1.17;0.80;;;11.90;99.90;;;-141.84;50.96;20106.50;5073201;28;20719;-79
2023/04/13 08:37:52;;;;;;;3.77;1.00;;;12.00;99.90;;;-141.84;49.78;20088.22;5067964;28;20217;-78
2023/04/13 08:40:21;;;;;;;2.23;0.90;;;12.00;99.90;;;-141.84;50.44;20120.75;5052566;28;20229;-79
2023/04/13 08:42:54;;;;;;;3.03;0.93;;;12.00;99.90;;;-141.84;50.30;20126.84;5068515;28;20671;-82
2023/04/13 08:45:22;;;;;;;1.47;0.80;;;11.90;99.90;;;-141.84;50.18;20088.22;5072557;28;20688;-75
2023/04/13 08:47:50;;;;;;;3.40;1.10;;;11.90;99.90;;;-141.84;50.64;20132.94;5072319;28;20599;-81
2023/04/13 08:50:19;;;;;;;3.27;1.00;;;11.90;99.90;;;-141.84;50.39;20102.44;5072358;28;20232;-79
2023/04/13 08:52:49;;;;;;;2.80;1.07;;;12.00;99.90;;;-141.84;50.17;20155.28;5071875;28;20615;-78
2023/04/13 08:55:17;;;;;;;2.00;1.07;;;12.10;99.90;;;-141.84;50.28;20120.75;5072061;28;20708;-75
2023/04/13 08:57:49;;;;;;;2.13;1.10;;;12.20;99.90;;;-141.84;50.14;20157.31;5072105;28;20695;-77
2023/04/13 09:00:20;;;;;;;1.80;0.90;;;12.30;99.90;;;-141.84;50.39;20134.97;5071727;28;20232;-77
2023/04/13 09:02:57;;;;;;;3.87;1.00;;;12.10;99.90;;;-141.84;49.90;20141.06;5071725;28;20247;-80
2023/04/13 09:05:40;;;;;;;2.10;1.10;;;12.10;99.90;;;-141.84;50.38;20124.81;5071691;28;20225;-76
2023/04/13 09:08:12;;;;;;;1.63;1.00;;;12.00;99.90;;;-141.84;49.86;20173.59;5072148;28;20224;-78
2023/04/13 09:10:41;;;;;;;1.30;1.10;;;12.10;99.90;;;-141.84;49.85;20210.16;5072638;28;20247;-77
2023/04/13 09:13:09;;;;;;;1.70;0.90;;;12.40;99.90;;;-141.84;48.66;20234.56;5071894;28;20232;-79
2023/04/13 09:15:37;;;;;;;1.92;0.90;;;12.50;99.90;;;-141.84;49.02;20236.59;5072398;28;20235;-77
2023/04/13 09:18:09;;;;;;;2.30;1.27;;;12.60;99.90;;;-141.84;48.50;20256.91;5071403;28;20232;-79
2023/04/13 09:20:39;;;;;;;3.28;1.00;;;12.60;99.90;;;-141.84;49.57;20181.72;5071577;28;20236;-79
2023/04/13 09:23:15;;;;;;;2.17;1.00;;;12.50;99.90;;;-141.84;51.00;20137.00;5071288;28;20224;-83
2023/04/13 09:25:45;;;;;;;3.23;1.10;;;12.40;99.90;;;-141.84;50.75;20195.94;5071678;28;20224;-78
2023/04/13 09:28:18;;;;;;;2.17;1.10;;;12.40;99.90;;;-141.84;49.91;20169.53;5054751;28;20801;-79
2023/04/13 09:30:47;;;;;;;1.37;1.00;;;12.30;99.90;;;-141.84;50.29;20139.03;5071747;28;20715;-77
2023/04/13 09:33:16;;;;;;;1.80;1.00;;;12.20;99.90;;;-141.84;51.08;20151.22;5071708;28;20226;-76
2023/04/13 09:35:45;;;;;;;1.60;1.07;;;12.10;99.90;;;-141.84;50.62;20139.03;5071286;28;20224;-76
2023/04/13 09:38:15;;;;;;;2.60;1.10;;;12.20;99.90;;;-141.84;50.73;20161.38;5069082;28;20221;-79
2023/04/13 09:40:53;;;;;;;2.50;1.00;;;12.30;99.90;;;-141.84;49.96;20195.94;5071457;28;20312;-80
2023/04/13 09:43:21;;;;;;;2.30;1.20;;;12.30;99.90;;;-141.84;49.04;20183.75;5070870;28;20259;-77
2023/04/13 09:45:50;;;;;;;4.37;1.20;;;12.40;99.90;;;-141.84;48.66;20195.94;5070612;28;20211;-78
2023/04/13 09:48:21;;;;;;;2.50;0.97;;;12.50;99.90;;;-141.84;50.15;20185.78;5071534;28;20204;-76
2023/04/13 09:51:00;;;;;;;1.38;1.05;;;12.40;99.90;;;-141.84;50.38;20216.25;5071005;28;20308;-78
2023/04/13 09:53:41;;;;;;;2.00;1.20;;;12.40;99.90;;;-141.84;50.24;20171.56;5071107;28;20231;-79
2023/04/13 09:56:10;;;;;;;4.10;1.10;;;12.50;99.90;;;-141.84;49.52;20210.16;5071052;28;20639;-78
2023/04/13 09:58:43;;;;;;;3.53;1.00;;;12.60;99.90;;;-141.84;49.12;20197.97;5069364;28;20216;-78
2023/04/13 10:01:13;;;;;;;2.63;0.90;;;12.60;99.90;;;-141.84;49.30;20169.53;5070846;28;20322;-81
2023/04/13 10:03:43;;;;;;;1.42;1.00;;;12.50;99.90;;;-141.84;48.85;20173.59;5071347;28;20200;-79
2023/04/13 10:06:12;;;;;;;1.65;0.85;;;12.40;99.90;;;-141.84;48.25;20224.41;5070549;28;20318;-79
2023/04/13 10:08:41;;;;;;;2.00;0.80;;;12.60;99.90;;;-141.84;48.23;20277.25;5070583;28;20251;-79
2023/04/13 10:11:13;;;;;;;1.17;0.90;;;12.70;99.90;;;-141.84;47.31;20389.03;5070542;28;20234;-79
2023/04/13 10:13:49;;;;;;;1.80;0.93;;;13.10;99.90;;;-141.84;46.00;20470.34;5070336;28;20739;-81
2023/04/13 10:17:11;;;;;;;2.47;0.90;;;13.50;99.90;;;-141.84;46.60;20431.72;5070750;28;20250;-78
2023/04/13 10:19:45;;;;;;;1.50;0.77;;;13.70;99.90;;;-141.84;45.74;20452.06;5011334;28;20230;-83
2023/04/13 10:22:15;;;;;;;2.08;0.88;;;13.90;99.90;;;-141.84;46.38;20492.72;5069988;28;20224;-77